Time;durP1;ratioP1;P1;durP2;ratioP2;P2;SDS_P1;SDS_P2;PMS_P1;PMS_P2;Temp;Humidity;BMP_temperature;BMP_pressure;BME280_temperature;BME280_humidity;BME280_pressure;Samples;Min_cycle;Max_cycle;Signal;HPM_P1;HPM_P2
2023/09/13 00:01:44;;;;;;;627.97;605.70;;;;;;;;;;5022222;28;20189;-89
2023/09/13 00:04:11;;;;;;;629.28;607.33;;;;;;;;;;5021003;28;20201;-92
2023/09/13 00:06:37;;;;;;;589.38;569.17;;;;;;;;;;4999914;28;20197;-90
2023/09/13 00:09:06;;;;;;;592.22;571.92;;;;;;;;;;5007247;28;20208;-91
2023/09/13 00:11:32;;;;;;;594.45;573.97;;;;;;;;;;4995350;28;20216;-92
2023/09/13 00:13:59;;;;;;;584.75;564.65;;;;;;;;;;5019675;28;20216;-91
2023/09/13 00:16:25;;;;;;;591.20;571.13;;;;;;;;;;5015209;28;20191;-91
2023/09/13 00:18:51;;;;;;;616.00;594.67;;;;;;;;;;5002076;28;20260;-92
2023/09/13 00:21:17;;;;;;;597.00;576.33;;;;;;;;;;5021802;28;20729;-91
2023/09/13 00:23:44;;;;;;;589.33;569.05;;;;;;;;;;5015661;28;20272;-92
2023/09/13 00:26:11;;;;;;;593.05;572.72;;;;;;;;;;5021170;28;20184;-90
2023/09/13 00:28:37;;;;;;;597.25;576.88;;;;;;;;;;5022238;28;20244;-90
2023/09/13 00:31:03;;;;;;;584.70;564.97;;;;;;;;;;5013422;28;20185;-91
2023/09/13 00:33:32;;;;;;;558.50;539.80;;;;;;;;;;5022446;28;20188;-92
2023/09/13 00:35:58;;;;;;;579.58;560.28;;;;;;;;;;5012374;28;20822;-93
2023/09/13 00:38:24;;;;;;;577.38;557.78;;;;;;;;;;5023435;28;20205;-90
2023/09/13 00:40:51;;;;;;;596.17;575.85;;;;;;;;;;5023880;28;20235;-90
2023/09/13 00:43:18;;;;;;;598.80;578.53;;;;;;;;;;5013985;28;20228;-92
2023/09/13 00:45:44;;;;;;;589.10;568.70;;;;;;;;;;5020557;28;20209;-91
2023/09/13 00:48:10;;;;;;;566.58;547.38;;;;;;;;;;5020611;28;20205;-91
2023/09/13 00:50:37;;;;;;;609.35;587.95;;;;;;;;;;5026539;28;20189;-90
2023/09/13 00:53:04;;;;;;;609.03;587.65;;;;;;;;;;5021962;28;20269;-91
2023/09/13 00:55:32;;;;;;;607.22;586.20;;;;;;;;;;5020460;28;20189;-91
2023/09/13 00:57:58;;;;;;;598.47;577.97;;;;;;;;;;5020004;28;20216;-91
2023/09/13 01:00:27;;;;;;;594.35;574.05;;;;;;;;;;5020857;28;20192;-92
2023/09/13 01:02:53;;;;;;;592.40;572.30;;;;;;;;;;5020424;28;20205;-91
2023/09/13 01:05:19;;;;;;;584.53;564.80;;;;;;;;;;5021435;28;20220;-89
2023/09/13 01:07:46;;;;;;;583.92;564.00;;;;;;;;;;5019779;28;20448;-91
2023/09/13 01:10:12;;;;;;;611.65;590.45;;;;;;;;;;5023490;28;20182;-93
2023/09/13 01:12:38;;;;;;;628.80;606.63;;;;;;;;;;5021706;28;20192;-92
2023/09/13 01:15:08;;;;;;;613.15;592.08;;;;;;;;;;5023079;28;20658;-92
2023/09/13 01:17:46;;;;;;;627.78;605.42;;;;;;;;;;5014124;28;20241;-91
2023/09/13 01:20:31;;;;;;;615.47;594.20;;;;;;;;;;5003978;28;20269;-91
2023/09/13 01:22:59;;;;;;;603.80;583.25;;;;;;;;;;5019552;28;20228;-91
2023/09/13 01:25:28;;;;;;;597.72;577.38;;;;;;;;;;5023566;28;20189;-90
2023/09/13 01:28:07;;;;;;;565.25;546.58;;;;;;;;;;5018843;28;20626;-92
2023/09/13 01:30:33;;;;;;;579.38;559.65;;;;;;;;;;4995143;28;20212;-92
2023/09/13 01:33:00;;;;;;;584.92;565.03;;;;;;;;;;5023494;28;20189;-91
2023/09/13 01:35:26;;;;;;;566.45;547.60;;;;;;;;;;5023407;28;20189;-91
2023/09/13 01:37:52;;;;;;;556.35;537.78;;;;;;;;;;5022829;28;20248;-92
2023/09/13 01:40:19;;;;;;;564.42;545.53;;;;;;;;;;5023539;28;20200;-92
2023/09/13 01:42:47;;;;;;;565.88;544.42;;;;;;;;;;5023345;28;20277;-92
2023/09/13 01:45:14;;;;;;;550.72;532.65;;;;;;;;;;5023446;28;20188;-91
2023/09/13 01:47:42;;;;;;;546.83;529.00;;;;;;;;;;5023013;28;20231;-92
2023/09/13 01:50:09;;;;;;;544.28;526.25;;;;;;;;;;5022942;28;20241;-92
2023/09/13 01:52:36;;;;;;;554.85;536.55;;;;;;;;;;5023297;28;20185;-91
2023/09/13 01:55:05;;;;;;;588.78;568.95;;;;;;;;;;5022432;28;20206;-91
2023/09/13 01:57:31;;;;;;;571.17;552.13;;;;;;;;;;5023150;28;20208;-91
2023/09/13 01:59:57;;;;;;;559.70;541.08;;;;;;;;;;5023773;28;20196;-91
2023/09/13 02:02:23;;;;;;;560.40;541.58;;;;;;;;;;5022419;28;20732;-91
2023/09/13 02:04:49;;;;;;;560.10;541.65;;;;;;;;;;5023027;28;20249;-89
2023/09/13 02:07:20;;;;;;;563.88;544.90;;;;;;;;;;5022488;28;20213;-91
2023/09/13 02:09:46;;;;;;;540.70;522.92;;;;;;;;;;5022922;28;20265;-91
2023/09/13 02:12:13;;;;;;;542.47;524.38;;;;;;;;;;5022935;28;20178;-91
2023/09/13 02:14:42;;;;;;;550.38;531.50;;;;;;;;;;5004980;28;20204;-91
2023/09/13 02:17:11;;;;;;;521.25;504.55;;;;;;;;;;5005183;28;20197;-91
2023/09/13 02:19:37;;;;;;;519.30;502.48;;;;;;;;;;5022716;28;20178;-89
2023/09/13 02:22:03;;;;;;;522.92;506.15;;;;;;;;;;5005729;28;20666;-92
2023/09/13 02:24:30;;;;;;;476.10;461.13;;;;;;;;;;5021770;28;20245;-91
2023/09/13 02:26:56;;;;;;;442.73;429.08;;;;;;;;;;5005542;28;20189;-90
2023/09/13 02:29:22;;;;;;;427.17;414.27;;;;;;;;;;5022539;28;20587;-91
2023/09/13 02:31:48;;;;;;;413.38;400.83;;;;;;;;;;5023735;28;20212;-91
2023/09/13 02:34:14;;;;;;;438.30;424.95;;;;;;;;;;5023059;28;20204;-91
2023/09/13 02:36:40;;;;;;;446.45;432.90;;;;;;;;;;5022936;28;20194;-89
2023/09/13 02:39:10;;;;;;;434.90;421.77;;;;;;;;;;5005470;28;20218;-91
2023/09/13 02:41:36;;;;;;;430.73;417.48;;;;;;;;;;5029778;28;20181;-91
2023/09/13 02:44:02;;;;;;;417.08;404.33;;;;;;;;;;5032096;28;20208;-91
2023/09/13 02:46:29;;;;;;;415.63;403.00;;;;;;;;;;5023964;28;20208;-91
2023/09/13 02:48:55;;;;;;;427.83;414.80;;;;;;;;;;5023626;28;20588;-91
2023/09/13 02:51:21;;;;;;;421.75;409.13;;;;;;;;;;5023929;28;20192;-90
2023/09/13 02:53:47;;;;;;;410.52;398.30;;;;;;;;;;5023682;28;20204;-91
2023/09/13 02:56:13;;;;;;;431.05;417.92;;;;;;;;;;5023006;28;20249;-92
2023/09/13 02:58:39;;;;;;;406.77;394.55;;;;;;;;;;5022912;28;20221;-90
2023/09/13 03:01:10;;;;;;;427.48;414.42;;;;;;;;;;5023609;28;20221;-89
2023/09/13 03:03:36;;;;;;;417.52;404.88;;;;;;;;;;5031407;28;20235;-93
2023/09/13 03:06:06;;;;;;;424.42;411.55;;;;;;;;;;5038098;28;20177;-94
2023/09/13 03:08:32;;;;;;;417.15;404.77;;;;;;;;;;5038062;28;20224;-92
2023/09/13 03:10:58;;;;;;;413.50;400.88;;;;;;;;;;5042226;28;20193;-93
2023/09/13 03:13:24;;;;;;;424.13;411.17;;;;;;;;;;5038781;28;20162;-93
2023/09/13 03:15:50;;;;;;;426.70;413.67;;;;;;;;;;5018491;28;20241;-91
2023/09/13 03:18:16;;;;;;;439.38;425.95;;;;;;;;;;5027212;28;20221;-91
2023/09/13 03:20:42;;;;;;;451.58;437.92;;;;;;;;;;5021879;28;20194;-91
2023/09/13 03:23:08;;;;;;;455.65;441.67;;;;;;;;;;5022681;28;20214;-93
2023/09/13 03:25:34;;;;;;;451.42;437.58;;;;;;;;;;5022178;28;20182;-90
2023/09/13 03:28:00;;;;;;;474.13;459.23;;;;;;;;;;5029304;28;20236;-91
2023/09/13 03:30:25;;;;;;;482.45;467.60;;;;;;;;;;5030071;28;20190;-91
2023/09/13 03:32:52;;;;;;;496.73;481.25;;;;;;;;;;5025995;28;20191;-91
2023/09/13 03:35:18;;;;;;;499.77;484.02;;;;;;;;;;5025373;28;20204;-90
2023/09/13 03:37:44;;;;;;;500.15;484.20;;;;;;;;;;5027828;28;20225;-91
2023/09/13 03:40:11;;;;;;;513.15;496.88;;;;;;;;;;5025935;28;20285;-91
2023/09/13 03:42:37;;;;;;;480.50;465.38;;;;;;;;;;4995718;28;20201;-92
2023/09/13 03:45:03;;;;;;;486.48;471.20;;;;;;;;;;5023184;28;20571;-91
2023/09/13 03:47:29;;;;;;;461.52;447.25;;;;;;;;;;5012064;28;20344;-92
2023/09/13 03:49:55;;;;;;;460.75;446.58;;;;;;;;;;5023003;28;20588;-91
2023/09/13 03:52:21;;;;;;;451.92;438.08;;;;;;;;;;5014555;28;20221;-91
2023/09/13 03:54:47;;;;;;;439.00;425.42;;;;;;;;;;5022111;28;20194;-90
2023/09/13 03:57:13;;;;;;;473.95;459.40;;;;;;;;;;5022042;28;20189;-92
2023/09/13 03:59:39;;;;;;;460.75;446.55;;;;;;;;;;5021067;28;20207;-92
2023/09/13 04:02:05;;;;;;;463.55;449.38;;;;;;;;;;5019662;28;20197;-91
2023/09/13 04:04:31;;;;;;;472.10;457.63;;;;;;;;;;5010844;28;20197;-93
2023/09/13 04:06:57;;;;;;;463.17;448.77;;;;;;;;;;5023385;28;20195;-92
2023/09/13 04:09:23;;;;;;;482.40;467.35;;;;;;;;;;5017589;28;20208;-92
2023/09/13 04:11:49;;;;;;;464.92;450.35;;;;;;;;;;5012694;28;20246;-92
2023/09/13 04:14:15;;;;;;;454.73;440.88;;;;;;;;;;5019727;28;20201;-90
2023/09/13 04:16:41;;;;;;;478.17;463.55;;;;;;;;;;5022259;28;20190;-91
2023/09/13 04:19:07;;;;;;;502.42;486.65;;;;;;;;;;5023600;28;20504;-92
2023/09/13 04:21:33;;;;;;;493.23;477.80;;;;;;;;;;5023507;28;20239;-91
2023/09/13 04:24:01;;;;;;;503.80;488.00;;;;;;;;;;5023801;28;20206;-92
2023/09/13 04:26:27;;;;;;;527.85;510.60;;;;;;;;;;5016276;28;20272;-92
2023/09/13 04:28:53;;;;;;;554.08;535.88;;;;;;;;;;5021927;28;20213;-92
2023/09/13 04:31:19;;;;;;;550.55;532.47;;;;;;;;;;5021662;28;20184;-91
2023/09/13 04:33:53;;;;;;;568.55;550.08;;;;;;;;;;5032904;28;20287;-92
2023/09/13 04:36:19;;;;;;;557.97;540.00;;;;;;;;;;5029356;28;20288;-93
2023/09/13 04:38:46;;;;;;;557.85;539.45;;;;;;;;;;5017413;28;20219;-90
2023/09/13 04:41:16;;;;;;;564.47;545.90;;;;;;;;;;5022872;28;20205;-92
2023/09/13 04:43:42;;;;;;;561.03;542.63;;;;;;;;;;5005826;28;20212;-92
2023/09/13 04:46:08;;;;;;;567.60;548.97;;;;;;;;;;5022734;28;20181;-93
2023/09/13 04:48:34;;;;;;;593.38;573.17;;;;;;;;;;5026769;28;20202;-93
2023/09/13 04:51:02;;;;;;;569.35;550.35;;;;;;;;;;5026427;28;20188;-91
2023/09/13 04:53:28;;;;;;;576.28;556.92;;;;;;;;;;5009228;28;20259;-91
2023/09/13 04:55:54;;;;;;;587.70;567.85;;;;;;;;;;5025749;28;20204;-91
2023/09/13 04:58:20;;;;;;;573.15;554.00;;;;;;;;;;5025582;28;20213;-93
2023/09/13 05:00:46;;;;;;;599.55;579.17;;;;;;;;;;5025668;28;20196;-93
2023/09/13 05:03:12;;;;;;;614.40;593.08;;;;;;;;;;5025282;28;20213;-92
2023/09/13 05:05:40;;;;;;;609.17;587.88;;;;;;;;;;5025217;28;20189;-93
2023/09/13 05:08:06;;;;;;;603.17;582.55;;;;;;;;;;5024625;28;20206;-92
2023/09/13 05:10:32;;;;;;;595.33;575.15;;;;;;;;;;5028483;28;20185;-94
2023/09/13 05:12:59;;;;;;;605.30;584.72;;;;;;;;;;5024874;28;20192;-92
2023/09/13 05:15:25;;;;;;;612.22;591.13;;;;;;;;;;5024154;28;20188;-92
2023/09/13 05:17:51;;;;;;;619.15;597.47;;;;;;;;;;5024290;28;20260;-92
2023/09/13 05:20:17;;;;;;;628.42;606.13;;;;;;;;;;5025688;28;20181;-92
2023/09/13 05:22:43;;;;;;;626.20;604.20;;;;;;;;;;5002496;28;20352;-92
2023/09/13 05:25:09;;;;;;;629.78;607.80;;;;;;;;;;5015738;28;20242;-92
2023/09/13 05:27:35;;;;;;;619.58;598.13;;;;;;;;;;5010641;28;20698;-93
2023/09/13 05:30:01;;;;;;;614.45;593.15;;;;;;;;;;5028588;28;20188;-92
2023/09/13 05:32:27;;;;;;;587.38;567.28;;;;;;;;;;5027037;28;20193;-94
2023/09/13 05:34:53;;;;;;;594.60;574.33;;;;;;;;;;5026816;28;20231;-92
2023/09/13 05:37:19;;;;;;;581.10;561.65;;;;;;;;;;5027176;28;20277;-91
2023/09/13 05:39:45;;;;;;;562.88;544.03;;;;;;;;;;5028488;28;20653;-94
2023/09/13 05:42:11;;;;;;;581.75;562.13;;;;;;;;;;5026848;28;20209;-92
2023/09/13 05:44:37;;;;;;;529.55;512.30;;;;;;;;;;5023208;28;20216;-92
2023/09/13 05:47:03;;;;;;;537.53;520.33;;;;;;;;;;5023426;28;20690;-92
2023/09/13 05:49:29;;;;;;;539.65;521.60;;;;;;;;;;5028161;28;20186;-91
2023/09/13 05:51:55;;;;;;;542.38;524.63;;;;;;;;;;5028343;28;20575;-94
2023/09/13 05:54:21;;;;;;;516.90;499.58;;;;;;;;;;5022633;28;20185;-92
2023/09/13 05:56:47;;;;;;;534.30;516.75;;;;;;;;;;5019064;28;20336;-93
2023/09/13 05:59:13;;;;;;;524.90;507.60;;;;;;;;;;5024355;28;20206;-92
2023/09/13 06:01:39;;;;;;;534.58;516.88;;;;;;;;;;5024212;28;20213;-89
2023/09/13 06:04:07;;;;;;;529.70;512.50;;;;;;;;;;5008907;28;20206;-92
2023/09/13 06:06:33;;;;;;;525.17;507.90;;;;;;;;;;5005826;28;20190;-92
2023/09/13 06:08:59;;;;;;;559.70;541.10;;;;;;;;;;5002837;28;20217;-91
2023/09/13 06:11:25;;;;;;;547.47;529.58;;;;;;;;;;5007563;28;20177;-91
2023/09/13 06:13:52;;;;;;;564.47;545.38;;;;;;;;;;5005667;28;20198;-91
2023/09/13 06:16:18;;;;;;;571.80;552.58;;;;;;;;;;4987152;28;20191;-91
2023/09/13 06:18:44;;;;;;;532.28;514.80;;;;;;;;;;5005480;28;20217;-93
2023/09/13 06:21:12;;;;;;;545.92;527.70;;;;;;;;;;5016795;28;20193;-90
2023/09/13 06:23:39;;;;;;;563.33;544.45;;;;;;;;;;5022544;28;20197;-91
2023/09/13 06:26:05;;;;;;;560.58;541.60;;;;;;;;;;5021284;28;20186;-91
2023/09/13 06:28:32;;;;;;;562.40;543.58;;;;;;;;;;5026699;28;20202;-89
2023/09/13 06:30:58;;;;;;;542.58;524.78;;;;;;;;;;5019991;28;20269;-90
2023/09/13 06:33:25;;;;;;;570.15;550.55;;;;;;;;;;5012876;28;20190;-90
2023/09/13 06:35:51;;;;;;;540.28;521.97;;;;;;;;;;5020876;28;20578;-89
2023/09/13 06:38:18;;;;;;;592.10;571.67;;;;;;;;;;5021348;28;20206;-89
2023/09/13 06:40:47;;;;;;;561.33;542.45;;;;;;;;;;5021940;28;20193;-89
2023/09/13 06:43:13;;;;;;;557.20;538.03;;;;;;;;;;5021893;28;20216;-90
2023/09/13 06:45:39;;;;;;;538.63;520.85;;;;;;;;;;4999196;28;20186;-90
2023/09/13 06:48:05;;;;;;;555.38;536.97;;;;;;;;;;5020857;28;20206;-90
2023/09/13 06:50:31;;;;;;;572.42;552.85;;;;;;;;;;5013227;28;20189;-89
2023/09/13 06:52:57;;;;;;;583.58;563.58;;;;;;;;;;5021937;28;20196;-89
2023/09/13 06:55:23;;;;;;;596.08;574.97;;;;;;;;;;5022329;28;20212;-91
2023/09/13 06:57:51;;;;;;;608.10;586.83;;;;;;;;;;5021226;28;20495;-90
2023/09/13 07:00:17;;;;;;;589.97;569.67;;;;;;;;;;5020652;28;20210;-89
2023/09/13 07:02:43;;;;;;;561.97;543.28;;;;;;;;;;4996087;28;20209;-89
2023/09/13 07:05:09;;;;;;;599.00;578.15;;;;;;;;;;5022126;28;20190;-89
2023/09/13 07:07:36;;;;;;;609.10;588.00;;;;;;;;;;5020387;28;20209;-89
2023/09/13 07:10:03;;;;;;;585.90;565.72;;;;;;;;;;5015470;28;20194;-90
2023/09/13 07:12:29;;;;;;;562.30;543.10;;;;;;;;;;5019542;28;20903;-90
2023/09/13 07:14:55;;;;;;;555.33;536.67;;;;;;;;;;5020321;28;20181;-89
2023/09/13 07:17:21;;;;;;;565.15;546.20;;;;;;;;;;5018622;28;20285;-91
2023/09/13 07:19:47;;;;;;;579.13;559.53;;;;;;;;;;5005134;28;20302;-89
2023/09/13 07:22:13;;;;;;;591.10;570.95;;;;;;;;;;5023733;28;20185;-90
2023/09/13 07:24:39;;;;;;;586.92;566.65;;;;;;;;;;5028301;28;20700;-89
2023/09/13 07:27:05;;;;;;;557.85;539.40;;;;;;;;;;5024240;28;20261;-88
2023/09/13 07:29:31;;;;;;;576.17;556.33;;;;;;;;;;5002407;28;20208;-90
2023/09/13 07:31:57;;;;;;;556.35;537.75;;;;;;;;;;5012653;28;20184;-90
2023/09/13 07:34:23;;;;;;;553.63;535.10;;;;;;;;;;5020638;28;20181;-91
2023/09/13 07:36:49;;;;;;;546.80;528.58;;;;;;;;;;5021297;28;20199;-89
2023/09/13 07:39:15;;;;;;;517.92;501.40;;;;;;;;;;5026395;28;20212;-89
2023/09/13 07:41:42;;;;;;;581.90;561.80;;;;;;;;;;5029916;28;20204;-86
2023/09/13 07:44:08;;;;;;;556.90;537.90;;;;;;;;;;5026040;28;20319;-90
2023/09/13 07:46:34;;;;;;;541.00;522.88;;;;;;;;;;5021110;28;20698;-89
2023/09/13 07:49:00;;;;;;;535.75;518.15;;;;;;;;;;5020061;28;20213;-89
2023/09/13 07:51:26;;;;;;;541.47;523.60;;;;;;;;;;5020254;28;20196;-89
2023/09/13 07:53:53;;;;;;;521.38;504.42;;;;;;;;;;5021067;28;20679;-90
2023/09/13 07:56:20;;;;;;;533.72;516.28;;;;;;;;;;5020481;28;20181;-89
2023/09/13 07:58:46;;;;;;;522.35;505.52;;;;;;;;;;5019922;28;20269;-90
2023/09/13 08:01:12;;;;;;;535.20;516.00;;;;;;;;;;5019982;28;20208;-90
2023/09/13 08:03:38;;;;;;;500.00;484.13;;;;;;;;;;5019117;28;20218;-90
2023/09/13 08:06:04;;;;;;;512.95;496.35;;;;;;;;;;5020163;28;20186;-90
2023/09/13 08:08:32;;;;;;;535.63;517.33;;;;;;;;;;5019809;28;20298;-90
2023/09/13 08:10:58;;;;;;;523.67;506.75;;;;;;;;;;5031850;28;20283;-90
2023/09/13 08:13:24;;;;;;;526.65;509.15;;;;;;;;;;5020520;28;20209;-89
2023/09/13 08:15:51;;;;;;;514.15;497.27;;;;;;;;;;5020731;28;20229;-92
2023/09/13 08:18:17;;;;;;;545.35;527.47;;;;;;;;;;5019290;28;20209;-90
2023/09/13 08:20:43;;;;;;;581.83;562.30;;;;;;;;;;5018896;28;20192;-91
2023/09/13 08:23:09;;;;;;;547.70;529.47;;;;;;;;;;5023191;28;20209;-90
2023/09/13 08:25:35;;;;;;;527.10;509.98;;;;;;;;;;5024468;28;20193;-91
2023/09/13 08:28:02;;;;;;;537.97;520.35;;;;;;;;;;5016166;28;20240;-89
2023/09/13 08:30:28;;;;;;;512.95;496.42;;;;;;;;;;5024173;28;20181;-90
2023/09/13 08:32:54;;;;;;;565.40;546.55;;;;;;;;;;5006783;28;20189;-90
2023/09/13 08:35:20;;;;;;;533.95;516.25;;;;;;;;;;5024841;28;20203;-89
2023/09/13 08:37:47;;;;;;;539.33;520.83;;;;;;;;;;5023888;28;20204;-91
2023/09/13 08:40:14;;;;;;;523.05;506.00;;;;;;;;;;5023931;28;20605;-87
2023/09/13 08:42:40;;;;;;;540.67;522.88;;;;;;;;;;5023990;28;20211;-90
2023/09/13 08:45:07;;;;;;;505.98;489.60;;;;;;;;;;5023618;28;20196;-90
2023/09/13 08:47:38;;;;;;;547.35;529.45;;;;;;;;;;5016098;28;20269;-89
2023/09/13 08:50:06;;;;;;;558.92;540.53;;;;;;;;;;5024237;28;20185;-90
2023/09/13 08:52:32;;;;;;;570.60;551.38;;;;;;;;;;5002885;28;20284;-90
2023/09/13 08:54:58;;;;;;;623.53;601.92;;;;;;;;;;5018559;28;20268;-89
2023/09/13 08:57:27;;;;;;;639.50;616.55;;;;;;;;;;5006575;28;20218;-91
2023/09/13 08:59:54;;;;;;;635.67;613.03;;;;;;;;;;5004762;28;20217;-90
2023/09/13 09:02:22;;;;;;;600.13;579.33;;;;;;;;;;5020656;28;20555;-91
2023/09/13 09:04:49;;;;;;;641.20;618.40;;;;;;;;;;5008324;28;20253;-92
2023/09/13 09:07:16;;;;;;;593.40;573.20;;;;;;;;;;5021623;28;20189;-91
2023/09/13 09:09:43;;;;;;;614.33;592.83;;;;;;;;;;5024847;28;20197;-91
2023/09/13 09:12:11;;;;;;;627.05;604.88;;;;;;;;;;5022772;28;20173;-92
2023/09/13 09:14:39;;;;;;;649.17;625.90;;;;;;;;;;5028808;28;20642;-90
2023/09/13 09:17:05;;;;;;;652.17;627.88;;;;;;;;;;5036140;28;20170;-90
2023/09/13 09:19:31;;;;;;;693.17;666.97;;;;;;;;;;5023267;28;20204;-91
2023/09/13 09:21:58;;;;;;;685.05;659.45;;;;;;;;;;5022647;28;20193;-89
2023/09/13 09:24:24;;;;;;;685.08;658.88;;;;;;;;;;5005698;28;20224;-90
2023/09/13 09:26:50;;;;;;;683.47;657.75;;;;;;;;;;5023094;28;20192;-92
2023/09/13 09:29:20;;;;;;;664.67;639.88;;;;;;;;;;5014158;28;20228;-90
2023/09/13 09:31:46;;;;;;;657.00;633.00;;;;;;;;;;5022832;28;20209;-91
2023/09/13 09:34:15;;;;;;;665.28;640.58;;;;;;;;;;5022503;28;20659;-89
2023/09/13 09:36:42;;;;;;;629.33;606.67;;;;;;;;;;5021871;28;20300;-90
2023/09/13 09:39:08;;;;;;;626.00;603.58;;;;;;;;;;5022605;28;20349;-90
2023/09/13 09:41:35;;;;;;;610.42;589.25;;;;;;;;;;5022388;28;20185;-90
2023/09/13 09:44:01;;;;;;;636.90;614.10;;;;;;;;;;5022036;28;20240;-90
2023/09/13 09:46:27;;;;;;;658.45;634.30;;;;;;;;;;5014361;28;20177;-90
2023/09/13 09:48:54;;;;;;;635.65;613.47;;;;;;;;;;5022819;28;20232;-89
2023/09/13 09:51:20;;;;;;;623.75;601.83;;;;;;;;;;5022706;28;20181;-91
2023/09/13 09:53:47;;;;;;;633.97;611.25;;;;;;;;;;5003796;28;20224;-91
2023/09/13 09:56:13;;;;;;;629.83;607.75;;;;;;;;;;5002910;28;20244;-90
2023/09/13 09:58:40;;;;;;;623.65;601.60;;;;;;;;;;5021560;28;20201;-90
2023/09/13 10:01:07;;;;;;;596.60;575.80;;;;;;;;;;5022213;28;20190;-90
2023/09/13 10:03:34;;;;;;;625.65;603.15;;;;;;;;;;5013687;28;20228;-90
2023/09/13 10:06:18;;;;;;;609.25;588.17;;;;;;;;;;5022467;28;20185;-89
2023/09/13 10:08:44;;;;;;;605.47;584.85;;;;;;;;;;5016135;28;20210;-90
2023/09/13 10:11:14;;;;;;;620.10;598.20;;;;;;;;;;5024603;28;20244;-89
2023/09/13 10:13:41;;;;;;;622.58;600.70;;;;;;;;;;5022115;28;20843;-90
2023/09/13 10:16:08;;;;;;;617.17;595.67;;;;;;;;;;5005358;28;20598;-91
2023/09/13 10:18:53;;;;;;;626.08;603.33;;;;;;;;;;5006439;28;20296;-89
2023/09/13 10:21:30;;;;;;;650.55;627.15;;;;;;;;;;5014005;28;20194;-90
2023/09/13 10:24:04;;;;;;;621.28;599.15;;;;;;;;;;5023374;28;20194;-90
2023/09/13 10:26:31;;;;;;;585.50;565.15;;;;;;;;;;5022355;28;20181;-90
2023/09/13 10:29:00;;;;;;;594.38;573.60;;;;;;;;;;5021997;28;20216;-90
2023/09/13 10:31:32;;;;;;;629.75;607.67;;;;;;;;;;5018764;28;20197;-89
2023/09/13 10:34:00;;;;;;;664.30;640.20;;;;;;;;;;5017145;28;20220;-87
2023/09/13 10:36:28;;;;;;;694.72;668.53;;;;;;;;;;5021221;28;20540;-88
2023/09/13 10:39:14;;;;;;;694.90;668.67;;;;;;;;;;5021519;28;20217;-91
2023/09/13 10:41:43;;;;;;;671.42;646.83;;;;;;;;;;5021649;28;20276;-90
2023/09/13 10:44:09;;;;;;;635.15;613.13;;;;;;;;;;5019289;28;20217;-91
2023/09/13 10:46:36;;;;;;;653.40;629.40;;;;;;;;;;5021740;28;20182;-90
2023/09/13 10:49:02;;;;;;;670.45;644.10;;;;;;;;;;5021539;28;20223;-90
2023/09/13 10:51:31;;;;;;;599.58;578.35;;;;;;;;;;5020323;28;20193;-91
2023/09/13 10:53:58;;;;;;;614.95;593.47;;;;;;;;;;5020486;28;20181;-91
2023/09/13 10:56:24;;;;;;;660.10;636.30;;;;;;;;;;5011484;28;20191;-92
2023/09/13 10:58:50;;;;;;;678.05;652.72;;;;;;;;;;5017653;28;20300;-90
2023/09/13 11:01:16;;;;;;;670.33;645.63;;;;;;;;;;5020399;28;20526;-92
2023/09/13 11:03:42;;;;;;;704.90;678.22;;;;;;;;;;5020153;28;20244;-92
2023/09/13 11:06:09;;;;;;;681.70;656.40;;;;;;;;;;5020793;28;20257;-89
2023/09/13 11:08:35;;;;;;;661.08;637.03;;;;;;;;;;5031743;28;20218;-90
2023/09/13 11:11:08;;;;;;;623.83;601.88;;;;;;;;;;5039933;28;20200;-96
2023/09/13 11:13:34;;;;;;;647.65;624.83;;;;;;;;;;5030381;28;20198;-92
2023/09/13 11:16:07;;;;;;;629.65;606.85;;;;;;;;;;5034088;28;20174;-94
2023/09/13 11:18:33;;;;;;;623.90;601.67;;;;;;;;;;5027018;28;20232;-90
2023/09/13 11:20:59;;;;;;;643.72;620.15;;;;;;;;;;5037053;28;20262;-92
2023/09/13 11:23:25;;;;;;;689.35;663.65;;;;;;;;;;5038821;28;20210;-92
2023/09/13 11:25:58;;;;;;;701.35;674.63;;;;;;;;;;5021582;28;20225;-90
2023/09/13 11:28:32;;;;;;;1365.88;851.65;;;;;;;;;;5025935;28;20201;-91
2023/09/13 11:30:59;;;;;;;714.65;687.08;;;;;;;;;;5006261;28;20189;-93
2023/09/13 11:33:26;;;;;;;1354.00;840.38;;;;;;;;;;5022993;28;20185;-90
2023/09/13 11:35:54;;;;;;;1999.90;999.90;;;;;;;;;;5023921;28;20208;-91
2023/09/13 11:38:23;;;;;;;1999.90;999.90;;;;;;;;;;5004957;28;20213;-91
2023/09/13 11:40:49;;;;;;;727.60;699.25;;;;;;;;;;5022042;28;20293;-90
2023/09/13 11:43:22;;;;;;;696.67;670.28;;;;;;;;;;5022358;28;20197;-92
2023/09/13 11:45:49;;;;;;;662.40;638.20;;;;;;;;;;5014073;28;20186;-91
2023/09/13 11:48:40;;;;;;;660.78;636.80;;;;;;;;;;5013184;28;20229;-92
2023/09/13 11:51:11;;;;;;;636.38;613.83;;;;;;;;;;5018805;28;20177;-91
2023/09/13 11:53:37;;;;;;;673.92;648.95;;;;;;;;;;5010248;28;20193;-92
2023/09/13 11:56:03;;;;;;;1999.90;999.90;;;;;;;;;;5009865;28;20182;-91
2023/09/13 11:58:36;;;;;;;1999.90;999.90;;;;;;;;;;5018824;28;20225;-89
2023/09/13 12:01:04;;;;;;;1999.90;999.90;;;;;;;;;;5000529;28;20197;-93
2023/09/13 12:03:31;;;;;;;1999.90;999.90;;;;;;;;;;5029199;28;20296;-90
2023/09/13 12:05:57;;;;;;;1999.90;999.90;;;;;;;;;;5032615;28;20181;-91
2023/09/13 12:08:23;;;;;;;1999.90;999.90;;;;;;;;;;5016473;28;20197;-93
2023/09/13 12:10:50;;;;;;;1999.90;999.90;;;;;;;;;;5023494;28;20651;-91
2023/09/13 12:13:16;;;;;;;1999.90;999.90;;;;;;;;;;5004698;28;20219;-91
2023/09/13 12:15:59;;;;;;;716.10;688.28;;;;;;;;;;5005954;28;20189;-92
2023/09/13 12:18:25;;;;;;;738.63;709.67;;;;;;;;;;5023477;28;20228;-92
2023/09/13 12:20:51;;;;;;;636.05;613.38;;;;;;;;;;5028500;28;20181;-94
2023/09/13 12:32:40;;;;;;;737.42;708.40;;;;;;;;;;4986975;28;20218;-94
2023/09/13 12:40:59;;;;;;;681.33;656.58;;;;;;;;;;4944329;29;20192;-95
2023/09/13 12:46:22;;;;;;;744.92;715.40;;;;;;;;;;4542461;26;20243;-93
2023/09/13 12:54:58;;;;;;;1999.90;999.90;;;;;;;;;;5068910;23;20234;-94
2023/09/13 12:57:30;;;;;;;1999.90;999.90;;;;;;;;;;5033179;28;20264;-94
2023/09/13 12:59:56;;;;;;;1999.90;999.90;;;;;;;;;;5035109;28;20197;-93
2023/09/13 13:02:22;;;;;;;1999.90;999.90;;;;;;;;;;5023546;28;20242;-92
2023/09/13 13:04:50;;;;;;;1999.90;999.90;;;;;;;;;;5031685;28;20193;-92
2023/09/13 13:07:24;;;;;;;1999.90;999.90;;;;;;;;;;5019781;28;20322;-94
2023/09/13 13:09:51;;;;;;;1999.90;999.90;;;;;;;;;;4999419;28;20198;-92
2023/09/13 13:12:17;;;;;;;1999.90;999.90;;;;;;;;;;5019724;28;20267;-91
2023/09/13 13:14:58;;;;;;;1999.90;999.90;;;;;;;;;;4997561;28;20189;-92
2023/09/13 13:17:24;;;;;;;1999.90;999.90;;;;;;;;;;5028122;28;20209;-91
2023/09/13 13:19:51;;;;;;;1999.90;999.90;;;;;;;;;;5022647;28;20202;-94
2023/09/13 13:22:17;;;;;;;1999.90;999.90;;;;;;;;;;5031974;28;20174;-94
2023/09/13 13:24:44;;;;;;;1999.90;999.90;;;;;;;;;;5037816;28;20180;-93
2023/09/13 13:27:10;;;;;;;1999.90;999.90;;;;;;;;;;5029589;28;20193;-93
2023/09/13 13:29:37;;;;;;;1999.90;999.90;;;;;;;;;;4993521;28;20178;-93
2023/09/13 13:32:03;;;;;;;1999.90;999.90;;;;;;;;;;5010430;28;20185;-95
2023/09/13 13:34:29;;;;;;;1999.90;999.90;;;;;;;;;;5030444;28;20200;-94
2023/09/13 13:36:55;;;;;;;1999.90;999.90;;;;;;;;;;5038028;28;20177;-92
2023/09/13 13:39:21;;;;;;;1999.90;999.90;;;;;;;;;;5038709;28;20217;-93
2023/09/13 13:41:48;;;;;;;1999.90;999.90;;;;;;;;;;5031678;28;20198;-93
2023/09/13 13:44:17;;;;;;;1999.90;999.90;;;;;;;;;;5015785;28;20404;-93
2023/09/13 13:46:43;;;;;;;1999.90;999.90;;;;;;;;;;5012866;28;20177;-93
2023/09/13 13:49:11;;;;;;;1999.90;999.90;;;;;;;;;;5026472;28;20303;-93
2023/09/13 13:51:37;;;;;;;1999.90;999.90;;;;;;;;;;5024837;28;20174;-94
2023/09/13 13:54:04;;;;;;;1999.90;999.90;;;;;;;;;;5005436;28;20279;-92
2023/09/13 13:56:30;;;;;;;1999.90;999.90;;;;;;;;;;5028160;28;20189;-95
2023/09/13 13:58:57;;;;;;;1999.90;999.90;;;;;;;;;;4993295;28;20213;-92
2023/09/13 14:01:23;;;;;;;1999.90;999.90;;;;;;;;;;5008353;28;20204;-93
2023/09/13 14:03:49;;;;;;;1999.90;999.90;;;;;;;;;;4989825;28;20643;-93
2023/09/13 14:06:15;;;;;;;1999.90;999.90;;;;;;;;;;5013397;28;20702;-94
2023/09/13 14:08:41;;;;;;;1999.90;999.90;;;;;;;;;;4991390;28;20791;-95
2023/09/13 14:11:07;;;;;;;1999.90;999.90;;;;;;;;;;5008440;28;20206;-94
2023/09/13 14:13:33;;;;;;;1999.90;999.90;;;;;;;;;;5009470;28;20186;-93
2023/09/13 14:15:59;;;;;;;1999.90;999.90;;;;;;;;;;5040973;28;20181;-93